createdAt,value
2023-04-07T00:00:16.164Z,20.17
2023-04-07T00:01:16.201Z,20.16
2023-04-07T00:02:16.329Z,20.16
2023-04-07T00:03:16.355Z,20.16
2023-04-07T00:04:16.501Z,20.16
2023-04-07T00:05:16.289Z,20.15
2023-04-07T00:06:16.326Z,20.16
2023-04-07T00:07:16.366Z,20.15
2023-04-07T00:08:16.395Z,20.16
2023-04-07T00:09:16.435Z,20.15
2023-04-07T00:10:16.476Z,20.16
2023-04-07T00:11:16.500Z,20.15
2023-04-07T00:12:16.545Z,20.15
2023-04-07T00:13:16.600Z,20.15
2023-04-07T00:14:16.634Z,20.15
2023-04-07T00:15:16.711Z,20.15
2023-04-07T00:16:16.736Z,20.15
2023-04-07T00:17:16.739Z,20.15
2023-04-07T00:18:16.803Z,20.16
2023-04-07T00:19:16.828Z,20.15
2023-04-07T00:20:16.849Z,20.15
2023-04-07T00:21:16.876Z,20.15
2023-04-07T00:22:16.931Z,20.15
2023-04-07T00:23:16.935Z,20.15
2023-04-07T00:24:31.131Z,20.14
2023-04-07T00:25:17.950Z,20.13
2023-04-07T00:26:16.891Z,20.12
2023-04-07T00:27:16.885Z,20.13
2023-04-07T00:28:16.837Z,20.13
2023-04-07T00:29:16.804Z,20.13
2023-04-07T00:30:16.840Z,20.12
2023-04-07T00:31:16.908Z,20.12
2023-04-07T00:32:16.748Z,20.12
2023-04-07T00:33:16.819Z,20.12
2023-04-07T00:34:16.830Z,20.13
2023-04-07T00:35:16.876Z,20.12
2023-04-07T00:36:16.934Z,20.12
2023-04-07T00:37:17.896Z,20.12
2023-04-07T00:38:16.991Z,20.12
2023-04-07T00:39:17.026Z,20.11
2023-04-07T00:40:17.061Z,20.11
2023-04-07T00:41:17.101Z,20.11
2023-04-07T00:42:17.130Z,20.11
2023-04-07T00:43:17.168Z,20.11
2023-04-07T00:44:17.191Z,20.11
2023-04-07T00:45:17.405Z,20.10
2023-04-07T00:46:17.253Z,20.11
2023-04-07T00:47:17.272Z,20.10
2023-04-07T00:48:17.289Z,20.10
2023-04-07T00:49:17.325Z,20.10
2023-04-07T00:50:17.376Z,20.11
2023-04-07T00:51:17.393Z,20.11
2023-04-07T00:52:17.413Z,20.11
2023-04-07T00:53:17.446Z,20.10
2023-04-07T00:54:17.467Z,20.10
2023-04-07T00:55:17.497Z,20.10
2023-04-07T00:56:17.532Z,20.10
2023-04-07T00:57:17.568Z,20.10
2023-04-07T00:58:17.624Z,20.10
2023-04-07T00:59:17.651Z,20.10
2023-04-07T01:00:17.698Z,20.10
2023-04-07T01:01:17.748Z,20.09
2023-04-07T01:02:17.877Z,20.09
2023-04-07T01:03:18.016Z,20.08
2023-04-07T01:04:17.871Z,20.09
2023-04-07T01:05:17.882Z,20.09
2023-04-07T01:06:17.909Z,20.08
2023-04-07T01:07:17.945Z,20.08
2023-04-07T01:08:17.978Z,20.08
2023-04-07T01:09:18.009Z,20.08
2023-04-07T01:10:18.413Z,20.07
2023-04-07T01:11:18.091Z,20.08
2023-04-07T01:12:18.157Z,20.08
2023-04-07T01:13:18.181Z,20.08
2023-04-07T01:14:18.222Z,20.08
2023-04-07T01:15:18.259Z,20.07
2023-04-07T01:16:18.310Z,20.08
2023-04-07T01:17:18.340Z,20.07
2023-04-07T01:18:18.374Z,20.07
2023-04-07T01:19:18.417Z,20.07
2023-04-07T01:20:18.458Z,20.06
2023-04-07T01:21:18.510Z,20.07
2023-04-07T01:22:18.554Z,20.07
2023-04-07T01:23:18.579Z,20.06
2023-04-07T01:24:18.619Z,20.06
2023-04-07T01:25:18.657Z,20.05
2023-04-07T01:26:18.706Z,20.06
2023-04-07T01:27:18.739Z,20.05
2023-04-07T01:28:18.784Z,20.06
2023-04-07T01:29:18.819Z,20.06
2023-04-07T01:30:18.856Z,20.06
2023-04-07T01:31:19.481Z,20.05
2023-04-07T01:32:18.886Z,20.05
2023-04-07T01:33:18.911Z,20.06
2023-04-07T01:34:18.952Z,20.05
2023-04-07T01:35:19.005Z,20.05
2023-04-07T01:36:19.026Z,20.04
2023-04-07T01:37:19.117Z,20.04
2023-04-07T01:38:19.079Z,20.05
2023-04-07T01:39:19.071Z,20.04
2023-04-07T01:40:19.140Z,20.04
2023-04-07T01:41:19.105Z,20.04
2023-04-07T01:42:19.103Z,20.04
2023-04-07T01:43:19.162Z,20.04
2023-04-07T01:44:19.171Z,20.04
2023-04-07T01:45:19.447Z,20.04
2023-04-07T01:46:19.172Z,20.04
2023-04-07T01:47:19.301Z,20.04
2023-04-07T01:48:19.257Z,20.05
2023-04-07T01:49:19.277Z,20.04
2023-04-07T01:50:19.323Z,20.04
2023-04-07T01:51:19.379Z,20.04
2023-04-07T01:52:19.375Z,20.04
2023-04-07T01:53:19.407Z,20.04
2023-04-07T01:54:19.483Z,20.03
2023-04-07T01:55:19.504Z,20.03
2023-04-07T01:56:19.630Z,20.03
2023-04-07T01:57:19.566Z,20.03
2023-04-07T01:58:19.641Z,20.03
2023-04-07T01:59:19.672Z,20.03
2023-04-07T02:00:19.775Z,20.03
2023-04-07T02:01:19.762Z,20.03
2023-04-07T02:02:19.993Z,20.02
2023-04-07T02:03:20.171Z,20.03
2023-04-07T02:04:19.834Z,20.02
2023-04-07T02:05:19.905Z,20.02
2023-04-07T02:06:19.872Z,20.02
2023-04-07T02:07:19.811Z,20.02
2023-04-07T02:08:19.857Z,20.02
2023-04-07T02:09:19.854Z,20.02
2023-04-07T02:10:19.944Z,20.02
2023-04-07T02:11:19.868Z,20.02
2023-04-07T02:12:19.922Z,20.01
2023-04-07T02:13:19.910Z,20.01
2023-04-07T02:14:19.943Z,20.02
2023-04-07T02:15:19.961Z,20.01
2023-04-07T02:16:20.500Z,20.01
2023-04-07T02:17:19.987Z,20.02
2023-04-07T02:18:20.088Z,20.01
2023-04-07T02:19:20.024Z,20.01
2023-04-07T02:20:20.037Z,20.00
2023-04-07T02:21:20.442Z,20.00
2023-04-07T02:22:20.061Z,20.00
2023-04-07T02:23:20.072Z,20.00
2023-04-07T02:24:20.154Z,20.00
2023-04-07T02:25:20.106Z,20.00
2023-04-07T02:26:20.138Z,20.00
2023-04-07T02:27:20.136Z,20.00
2023-04-07T02:28:20.140Z,20.00
2023-04-07T02:29:20.145Z,20.00
2023-04-07T02:30:20.153Z,20.00
2023-04-07T02:31:20.178Z,19.99
2023-04-07T02:32:20.174Z,19.98
2023-04-07T02:33:21.033Z,19.98
2023-04-07T02:34:20.220Z,19.98
2023-04-07T02:35:20.234Z,19.98
2023-04-07T02:36:20.360Z,19.97
2023-04-07T02:37:20.302Z,19.98
2023-04-07T02:38:20.301Z,19.98
2023-04-07T02:39:20.300Z,19.98
2023-04-07T02:40:20.294Z,19.98
2023-04-07T02:41:20.311Z,19.98
2023-04-07T02:42:20.340Z,19.98
2023-04-07T02:43:20.402Z,19.99
2023-04-07T02:44:20.416Z,19.98
2023-04-07T02:45:20.421Z,19.98
2023-04-07T02:46:20.508Z,19.99
2023-04-07T02:47:20.584Z,19.98
2023-04-07T02:48:20.500Z,19.98
2023-04-07T02:49:20.533Z,19.98
2023-04-07T02:50:20.617Z,19.99
2023-04-07T02:51:20.559Z,19.98
2023-04-07T02:52:20.635Z,19.98
2023-04-07T02:53:20.581Z,19.98
2023-04-07T02:54:21.444Z,19.98
2023-04-07T02:55:23.450Z,19.97
2023-04-07T02:56:20.626Z,19.97
2023-04-07T02:57:20.603Z,19.96
2023-04-07T02:58:20.630Z,19.97
2023-04-07T02:59:20.539Z,19.98
2023-04-07T03:00:20.515Z,19.98
2023-04-07T03:01:20.992Z,19.98
2023-04-07T03:02:20.537Z,19.98
2023-04-07T03:03:20.646Z,19.98
2023-04-07T03:04:20.517Z,19.97
2023-04-07T03:05:20.367Z,19.99
2023-04-07T03:06:20.378Z,19.98
2023-04-07T03:07:20.494Z,19.97
2023-04-07T03:08:21.009Z,19.97
2023-04-07T03:09:20.313Z,19.97
2023-04-07T03:10:20.321Z,19.97
2023-04-07T03:11:20.222Z,19.96
2023-04-07T03:12:20.190Z,19.97
2023-04-07T03:13:20.268Z,19.96
2023-04-07T03:14:20.135Z,19.96
2023-04-07T03:15:20.107Z,19.96
2023-04-07T03:16:20.124Z,19.95
2023-04-07T03:17:20.121Z,19.95
2023-04-07T03:18:20.012Z,19.96
2023-04-07T03:19:19.976Z,19.96
2023-04-07T03:20:19.964Z,19.96
2023-04-07T03:21:19.925Z,19.96
2023-04-07T03:22:19.873Z,19.95
2023-04-07T03:23:19.846Z,19.95
2023-04-07T03:24:19.809Z,19.94
2023-04-07T03:25:19.774Z,19.95
2023-04-07T03:26:19.743Z,19.95
2023-04-07T03:27:19.726Z,19.94
2023-04-07T03:28:19.706Z,19.95
2023-04-07T03:29:19.662Z,19.94
2023-04-07T03:30:19.638Z,19.94
2023-04-07T03:31:19.718Z,19.94
2023-04-07T03:32:19.564Z,19.95
2023-04-07T03:33:19.545Z,19.94
2023-04-07T03:34:19.530Z,19.94
2023-04-07T03:35:19.496Z,19.95
2023-04-07T03:36:19.509Z,19.94
2023-04-07T03:37:19.432Z,19.94
2023-04-07T03:38:19.415Z,19.94
2023-04-07T03:39:19.376Z,19.93
2023-04-07T03:40:19.359Z,19.93
2023-04-07T03:41:19.321Z,19.93
2023-04-07T03:42:19.283Z,19.92
2023-04-07T03:43:19.254Z,19.93
2023-04-07T03:44:19.227Z,19.93
2023-04-07T03:45:19.195Z,19.92
2023-04-07T03:46:19.188Z,19.92
2023-04-07T03:47:19.130Z,19.92
2023-04-07T03:48:19.094Z,19.92
2023-04-07T03:49:19.074Z,19.93
2023-04-07T03:50:19.059Z,19.93
2023-04-07T03:51:19.051Z,19.92
2023-04-07T03:52:19.074Z,19.92
2023-04-07T03:53:19.080Z,19.92
2023-04-07T03:54:19.082Z,19.92
2023-04-07T03:55:19.095Z,19.91
2023-04-07T03:56:19.108Z,19.92
2023-04-07T03:57:19.125Z,19.92
2023-04-07T03:58:19.121Z,19.91
2023-04-07T03:59:19.108Z,19.91
2023-04-07T04:00:19.080Z,19.91
2023-04-07T04:01:19.092Z,19.92
2023-04-07T04:02:19.263Z,19.90
2023-04-07T04:03:19.212Z,19.91
2023-04-07T04:04:19.188Z,19.90
2023-04-07T04:05:19.096Z,19.90
2023-04-07T04:06:19.090Z,19.90
2023-04-07T04:07:19.098Z,19.90
2023-04-07T04:08:19.083Z,19.90
2023-04-07T04:09:19.080Z,19.90
2023-04-07T04:10:19.081Z,19.91
2023-04-07T04:11:19.084Z,19.90
2023-04-07T04:12:19.100Z,19.90
2023-04-07T04:13:19.109Z,19.91
2023-04-07T04:14:19.123Z,19.91
2023-04-07T04:15:19.158Z,19.91
2023-04-07T04:16:19.225Z,19.91
2023-04-07T04:17:19.511Z,19.90
2023-04-07T04:18:19.097Z,19.89
2023-04-07T04:19:19.093Z,19.89
2023-04-07T04:20:19.082Z,19.89
2023-04-07T04:21:19.122Z,19.90
2023-04-07T04:22:19.072Z,19.89
2023-04-07T04:23:19.067Z,19.89
2023-04-07T04:24:19.116Z,19.89
2023-04-07T04:25:19.094Z,19.89
2023-04-07T04:26:19.075Z,19.90
2023-04-07T04:27:19.084Z,19.89
2023-04-07T04:28:19.061Z,19.90
2023-04-07T04:29:19.114Z,19.89
2023-04-07T04:30:19.038Z,19.89
2023-04-07T04:31:19.062Z,19.88
2023-04-07T04:32:19.036Z,19.88
2023-04-07T04:33:19.010Z,19.88
2023-04-07T04:34:18.992Z,19.88
2023-04-07T04:35:18.985Z,19.88
2023-04-07T04:36:18.988Z,19.89
2023-04-07T04:37:18.980Z,19.88
2023-04-07T04:38:18.970Z,19.89
2023-04-07T04:39:18.967Z,19.88
2023-04-07T04:40:18.976Z,19.88
2023-04-07T04:41:18.961Z,19.89
2023-04-07T04:42:18.961Z,19.89
2023-04-07T04:43:18.930Z,19.88
2023-04-07T04:44:18.904Z,19.88
2023-04-07T04:45:18.880Z,19.89
2023-04-07T04:46:18.859Z,19.88
2023-04-07T04:47:18.891Z,19.88
2023-04-07T04:48:18.826Z,19.87
2023-04-07T04:49:18.824Z,19.87
2023-04-07T04:50:18.806Z,19.87
2023-04-07T04:51:18.781Z,19.88
2023-04-07T04:52:18.820Z,19.87
2023-04-07T04:53:18.737Z,19.87
2023-04-07T04:54:18.715Z,19.87
2023-04-07T04:55:18.704Z,19.87
2023-04-07T04:56:18.725Z,19.87
2023-04-07T04:57:18.682Z,19.87
2023-04-07T04:58:19.542Z,19.87
2023-04-07T04:59:18.631Z,19.87
2023-04-07T05:00:18.594Z,19.86
2023-04-07T05:01:18.713Z,19.86
2023-04-07T05:02:18.643Z,19.86
2023-04-07T05:03:18.609Z,19.86
2023-04-07T05:04:18.747Z,19.86
2023-04-07T05:05:18.676Z,19.86
2023-04-07T05:06:19.003Z,19.86
2023-04-07T05:07:18.507Z,19.86
2023-04-07T05:08:18.474Z,19.86
2023-04-07T05:09:18.449Z,19.86
2023-04-07T05:10:18.440Z,19.85
2023-04-07T05:11:18.442Z,19.84
2023-04-07T05:12:18.424Z,19.84
2023-04-07T05:13:18.403Z,19.85
2023-04-07T05:14:18.392Z,19.84
2023-04-07T05:15:18.380Z,19.84
2023-04-07T05:16:19.046Z,19.84
2023-04-07T05:17:18.457Z,19.83
2023-04-07T05:18:18.355Z,19.83
2023-04-07T05:19:18.326Z,19.84
2023-04-07T05:20:18.317Z,19.84
2023-04-07T05:21:18.298Z,19.84
2023-04-07T05:22:18.307Z,19.84
2023-04-07T05:23:18.305Z,19.83
2023-04-07T05:24:18.287Z,19.83
2023-04-07T05:25:18.304Z,19.83
2023-04-07T05:26:18.293Z,19.82
2023-04-07T05:27:18.297Z,19.83
2023-04-07T05:28:18.294Z,19.83
2023-04-07T05:29:18.305Z,19.83
2023-04-07T05:30:18.294Z,19.83
2023-04-07T05:31:18.314Z,19.83
2023-04-07T05:32:18.296Z,19.83
2023-04-07T05:33:18.357Z,19.83
2023-04-07T05:34:18.276Z,19.83
2023-04-07T05:35:18.267Z,19.83
2023-04-07T05:36:18.268Z,19.82
2023-04-07T05:37:18.254Z,19.83
2023-04-07T05:38:18.235Z,19.83
2023-04-07T05:39:18.246Z,19.83
2023-04-07T05:40:18.258Z,19.83
2023-04-07T05:41:18.243Z,19.82
2023-04-07T05:42:18.248Z,19.82
2023-04-07T05:43:18.239Z,19.83
2023-04-07T05:44:18.204Z,19.82
2023-04-07T05:45:18.196Z,19.82
2023-04-07T05:46:18.406Z,19.83
2023-04-07T05:47:18.146Z,19.82
2023-04-07T05:48:18.128Z,19.83
2023-04-07T05:49:20.615Z,19.83
2023-04-07T05:50:18.091Z,19.82
2023-04-07T05:51:18.076Z,19.82
2023-04-07T05:52:18.056Z,19.83
2023-04-07T05:53:18.033Z,19.82
2023-04-07T05:54:18.010Z,19.83
2023-04-07T05:55:17.986Z,19.84
2023-04-07T05:56:17.958Z,19.83
2023-04-07T05:57:17.938Z,19.83
2023-04-07T05:58:17.898Z,19.83
2023-04-07T05:59:17.865Z,19.83
2023-04-07T06:00:17.840Z,19.83
2023-04-07T06:01:17.820Z,19.83
2023-04-07T06:02:17.908Z,19.84
2023-04-07T06:03:18.096Z,19.83
2023-04-07T06:04:17.752Z,19.83
2023-04-07T06:05:17.777Z,19.83
2023-04-07T06:06:17.762Z,19.83
2023-04-07T06:07:18.524Z,19.83
2023-04-07T06:08:17.667Z,19.82
2023-04-07T06:09:17.722Z,19.82
2023-04-07T06:10:17.678Z,19.82
2023-04-07T06:11:17.581Z,19.83
2023-04-07T06:12:17.561Z,19.83
2023-04-07T06:13:17.541Z,19.84
2023-04-07T06:14:17.507Z,19.83
2023-04-07T06:15:17.477Z,19.83
2023-04-07T06:16:19.535Z,19.84
2023-04-07T06:17:17.419Z,19.84
2023-04-07T06:18:17.391Z,19.85
2023-04-07T06:19:17.431Z,19.86
2023-04-07T06:20:17.326Z,19.86
2023-04-07T06:21:17.300Z,19.86
2023-04-07T06:22:17.285Z,19.86
2023-04-07T06:23:17.254Z,19.86
2023-04-07T06:24:17.227Z,19.85
2023-04-07T06:25:17.218Z,19.85
2023-04-07T06:26:17.203Z,19.86
2023-04-07T06:27:17.213Z,19.85
2023-04-07T06:28:17.223Z,19.85
2023-04-07T06:29:17.237Z,19.85
2023-04-07T06:30:17.218Z,19.85
2023-04-07T06:31:17.268Z,19.85
2023-04-07T06:32:17.245Z,19.86
2023-04-07T06:33:17.254Z,19.86
2023-04-07T06:34:17.282Z,19.85
2023-04-07T06:35:17.282Z,19.86
2023-04-07T06:36:17.282Z,19.86
2023-04-07T06:37:17.386Z,19.86
2023-04-07T06:38:17.297Z,19.86
2023-04-07T06:39:17.317Z,19.87
2023-04-07T06:40:17.352Z,19.87
2023-04-07T06:41:17.324Z,19.88
2023-04-07T06:42:17.307Z,20.21
2023-04-07T06:43:17.338Z,20.65
2023-04-07T06:44:17.545Z,20.97
2023-04-07T06:45:17.346Z,21.18
2023-04-07T06:46:17.328Z,21.14
2023-04-07T06:47:17.326Z,20.86
2023-04-07T06:48:17.317Z,20.77
2023-04-07T06:49:17.316Z,20.84
2023-04-07T06:50:18.034Z,20.84
2023-04-07T06:51:17.310Z,20.83
2023-04-07T06:52:17.313Z,20.85
2023-04-07T06:53:17.321Z,20.87
2023-04-07T06:54:17.330Z,20.88
2023-04-07T06:55:17.335Z,20.88
2023-04-07T06:56:17.321Z,20.88
2023-04-07T06:57:17.355Z,20.88
2023-04-07T06:58:17.380Z,20.91
2023-04-07T06:59:17.313Z,20.90
2023-04-07T07:00:17.318Z,20.85
2023-04-07T07:01:17.362Z,20.90
2023-04-07T07:02:17.416Z,20.92
2023-04-07T07:03:17.460Z,20.94
2023-04-07T07:04:17.401Z,21.02
2023-04-07T07:05:17.276Z,21.10
2023-04-07T07:06:17.312Z,21.15
2023-04-07T07:07:17.329Z,21.15
2023-04-07T07:08:17.285Z,21.24
2023-04-07T07:09:17.290Z,21.29
2023-04-07T07:10:17.292Z,21.23
2023-04-07T07:11:17.266Z,21.17
2023-04-07T07:12:17.259Z,21.21
2023-04-07T07:13:17.230Z,21.27
2023-04-07T07:14:17.241Z,21.35
2023-04-07T07:15:17.258Z,21.46
2023-04-07T07:16:17.337Z,21.55
2023-04-07T07:17:17.286Z,21.63
2023-04-07T07:18:17.283Z,21.52
2023-04-07T07:19:17.308Z,21.44
2023-04-07T07:20:17.316Z,21.46
2023-04-07T07:21:17.339Z,21.59
2023-04-07T07:22:17.342Z,21.68
2023-04-07T07:23:17.393Z,21.69
2023-04-07T07:24:17.380Z,21.61
2023-04-07T07:25:17.437Z,21.64
2023-04-07T07:26:17.386Z,21.68
2023-04-07T07:27:18.055Z,21.71
2023-04-07T07:28:17.385Z,21.73
2023-04-07T07:29:17.377Z,21.73
2023-04-07T07:30:17.373Z,21.67
2023-04-07T07:31:17.421Z,21.69
2023-04-07T07:32:17.348Z,21.72
2023-04-07T07:33:17.350Z,21.76
2023-04-07T07:34:17.350Z,21.74
2023-04-07T07:35:17.361Z,21.71
2023-04-07T07:36:17.394Z,21.68
2023-04-07T07:37:17.387Z,21.71
2023-04-07T07:38:17.357Z,21.74
2023-04-07T07:39:17.412Z,21.75
2023-04-07T07:40:17.413Z,21.74
2023-04-07T07:41:17.445Z,21.75
2023-04-07T07:42:17.451Z,21.79
2023-04-07T07:43:17.640Z,21.82
2023-04-07T07:44:17.488Z,21.84
2023-04-07T07:45:17.505Z,21.86
2023-04-07T07:46:17.561Z,21.88
2023-04-07T07:47:17.654Z,21.84
2023-04-07T07:48:17.581Z,21.85
2023-04-07T07:49:18.556Z,21.85
2023-04-07T07:50:17.639Z,21.89
2023-04-07T07:51:17.763Z,21.91
2023-04-07T07:52:17.708Z,21.93
2023-04-07T07:53:17.726Z,21.95
2023-04-07T07:54:17.755Z,21.95
2023-04-07T07:55:17.798Z,21.96
2023-04-07T07:56:17.822Z,21.98
2023-04-07T07:57:17.839Z,21.99
2023-04-07T07:58:17.867Z,22.00
2023-04-07T07:59:17.981Z,22.02
2023-04-07T08:00:17.909Z,22.03
2023-04-07T08:01:17.943Z,22.05
2023-04-07T08:02:18.007Z,22.05
2023-04-07T08:03:18.102Z,22.07
2023-04-07T08:04:18.272Z,22.04
2023-04-07T08:05:18.010Z,22.03
2023-04-07T08:06:17.992Z,22.06
2023-04-07T08:07:18.015Z,22.10
2023-04-07T08:08:18.025Z,22.12
2023-04-07T08:09:18.047Z,22.14
2023-04-07T08:10:18.039Z,22.14
2023-04-07T08:11:18.060Z,22.10
2023-04-07T08:12:18.062Z,22.08
2023-04-07T08:13:18.073Z,22.05
2023-04-07T08:14:18.174Z,22.06
2023-04-07T08:15:18.178Z,22.11
2023-04-07T08:16:18.131Z,22.09
2023-04-07T08:17:18.121Z,22.12
2023-04-07T08:18:18.128Z,22.10
2023-04-07T08:19:18.137Z,22.09
2023-04-07T08:20:18.140Z,22.10
2023-04-07T08:21:18.156Z,22.09
2023-04-07T08:22:18.153Z,22.11
2023-04-07T08:23:18.160Z,22.13
2023-04-07T08:24:18.153Z,22.14
2023-04-07T08:25:18.162Z,22.13
2023-04-07T08:26:18.151Z,22.17
2023-04-07T08:27:19.072Z,22.18
2023-04-07T08:28:18.155Z,22.15
2023-04-07T08:29:18.171Z,22.12
2023-04-07T08:30:18.189Z,22.11
2023-04-07T08:31:18.220Z,22.10
2023-04-07T08:32:18.201Z,22.09
2023-04-07T08:33:18.216Z,22.09
2023-04-07T08:34:18.227Z,22.07
2023-04-07T08:35:18.230Z,22.05
2023-04-07T08:36:18.348Z,22.04
2023-04-07T08:37:18.249Z,22.04
2023-04-07T08:38:18.262Z,22.03
2023-04-07T08:39:18.275Z,22.02
2023-04-07T08:40:18.300Z,22.02
2023-04-07T08:41:18.601Z,22.01
2023-04-07T08:42:18.300Z,22.00
2023-04-07T08:43:18.308Z,22.00
2023-04-07T08:44:18.328Z,21.99
2023-04-07T08:45:18.340Z,21.98
2023-04-07T08:46:18.368Z,21.98
2023-04-07T08:47:18.413Z,21.96
2023-04-07T08:48:18.393Z,21.97
2023-04-07T08:49:18.412Z,21.97
2023-04-07T08:50:18.436Z,21.95
2023-04-07T08:51:18.453Z,21.95
2023-04-07T08:52:18.465Z,21.95
2023-04-07T08:53:18.496Z,21.93
2023-04-07T08:54:18.510Z,21.93
2023-04-07T08:55:18.532Z,21.93
2023-04-07T08:56:18.551Z,21.92
2023-04-07T08:57:18.581Z,21.92
2023-04-07T08:58:18.587Z,21.91
2023-04-07T08:59:18.715Z,21.91
2023-04-07T09:00:18.651Z,21.90
2023-04-07T09:01:18.712Z,21.91
2023-04-07T09:02:18.730Z,21.91
2023-04-07T09:03:18.756Z,21.91
2023-04-07T09:04:19.626Z,21.92
2023-04-07T09:05:18.755Z,21.92
2023-04-07T09:06:19.090Z,21.94
2023-04-07T09:07:18.784Z,21.95
2023-04-07T09:08:18.812Z,21.95
2023-04-07T09:09:18.828Z,21.93
2023-04-07T09:10:18.845Z,21.92
2023-04-07T09:11:18.874Z,21.90
2023-04-07T09:12:18.880Z,21.90
2023-04-07T09:13:18.893Z,21.88
2023-04-07T09:14:19.585Z,21.88
2023-04-07T09:15:18.911Z,21.87
2023-04-07T09:16:19.004Z,21.86
2023-04-07T09:17:18.954Z,21.85
2023-04-07T09:18:18.959Z,21.86
2023-04-07T09:19:18.991Z,21.85
2023-04-07T09:20:18.943Z,21.85
2023-04-07T09:21:19.030Z,21.84
2023-04-07T09:22:18.954Z,21.84
2023-04-07T09:23:18.964Z,21.84
2023-04-07T09:24:19.112Z,21.83
2023-04-07T09:25:19.008Z,21.83
2023-04-07T09:26:18.972Z,21.83
2023-04-07T09:27:19.014Z,21.83
2023-04-07T09:28:18.966Z,21.84
2023-04-07T09:29:18.958Z,21.83
2023-04-07T09:30:19.029Z,21.83
2023-04-07T09:31:19.034Z,21.83
2023-04-07T09:32:19.030Z,21.83
2023-04-07T09:33:19.121Z,21.82
2023-04-07T09:34:19.092Z,21.81
2023-04-07T09:35:19.045Z,21.81
2023-04-07T09:36:19.074Z,21.81
2023-04-07T09:37:19.042Z,21.81
2023-04-07T09:38:19.041Z,21.82
2023-04-07T09:39:19.050Z,21.82
2023-04-07T09:40:19.052Z,21.83
2023-04-07T09:41:19.155Z,21.84
2023-04-07T09:42:19.066Z,21.83
2023-04-07T09:43:19.130Z,21.84
2023-04-07T09:44:19.098Z,21.87
2023-04-07T09:45:33.158Z,21.88
2023-04-07T09:46:20.131Z,21.90
2023-04-07T09:47:19.047Z,21.91
2023-04-07T09:48:18.972Z,21.90
2023-04-07T09:49:18.920Z,21.91
2023-04-07T09:50:18.935Z,21.88
2023-04-07T09:51:18.820Z,21.89
2023-04-07T09:52:18.761Z,21.92
2023-04-07T09:53:18.709Z,21.92
2023-04-07T09:54:18.663Z,21.91
2023-04-07T09:55:18.640Z,21.90
2023-04-07T09:56:18.647Z,21.87
2023-04-07T09:57:18.640Z,21.88
2023-04-07T09:58:18.813Z,21.91
2023-04-07T09:59:18.680Z,21.92
2023-04-07T10:00:18.662Z,21.91
2023-04-07T10:01:18.778Z,21.90
2023-04-07T10:02:18.693Z,21.89
2023-04-07T10:03:19.683Z,21.89
2023-04-07T10:04:18.739Z,21.90
2023-04-07T10:05:18.722Z,21.89
2023-04-07T10:06:18.722Z,21.89
2023-04-07T10:07:18.739Z,21.89
2023-04-07T10:08:18.747Z,21.92
2023-04-07T10:09:18.780Z,21.91
2023-04-07T10:10:18.832Z,21.92
2023-04-07T10:11:18.805Z,21.91
2023-04-07T10:12:18.803Z,21.92
2023-04-07T10:13:18.848Z,21.93
2023-04-07T10:14:18.838Z,21.95
2023-04-07T10:15:18.862Z,21.94
2023-04-07T10:16:18.929Z,21.94
2023-04-07T10:17:18.899Z,21.94
2023-04-07T10:18:18.956Z,21.95
2023-04-07T10:19:18.921Z,21.94
2023-04-07T10:20:18.935Z,21.95
2023-04-07T10:21:18.943Z,21.96
2023-04-07T10:22:18.963Z,21.97
2023-04-07T10:23:18.991Z,21.95
2023-04-07T10:24:18.998Z,21.95
2023-04-07T10:25:19.050Z,21.95
2023-04-07T10:26:19.054Z,21.95
2023-04-07T10:27:19.622Z,21.97
2023-04-07T10:28:19.087Z,21.97
2023-04-07T10:29:19.149Z,21.98
2023-04-07T10:30:19.183Z,21.99
2023-04-07T10:31:19.212Z,21.97
2023-04-07T10:32:19.158Z,21.95
2023-04-07T10:33:19.206Z,21.95
2023-04-07T10:34:19.204Z,21.96
2023-04-07T10:35:19.277Z,21.98
2023-04-07T10:36:19.210Z,21.98
2023-04-07T10:37:20.127Z,21.97
2023-04-07T10:38:19.313Z,21.98
2023-04-07T10:39:19.266Z,21.98
2023-04-07T10:40:19.432Z,21.98
2023-04-07T10:41:19.314Z,21.99
2023-04-07T10:42:19.312Z,21.99
2023-04-07T10:43:20.571Z,21.99
2023-04-07T10:44:19.326Z,21.99
2023-04-07T10:45:19.352Z,22.00
2023-04-07T10:46:19.370Z,22.00
2023-04-07T10:47:19.383Z,22.00
2023-04-07T10:48:19.383Z,22.00
2023-04-07T10:49:19.415Z,22.01
2023-04-07T10:50:19.419Z,22.02
2023-04-07T10:51:19.481Z,22.01
2023-04-07T10:52:19.455Z,22.02
2023-04-07T10:53:19.456Z,22.02
2023-04-07T10:54:19.458Z,22.02
2023-04-07T10:55:19.494Z,22.02
2023-04-07T10:56:19.482Z,22.00
2023-04-07T10:57:19.531Z,22.00
2023-04-07T10:58:19.517Z,22.02
2023-04-07T10:59:19.527Z,22.02
2023-04-07T11:00:19.553Z,22.01
2023-04-07T11:01:19.699Z,21.99
2023-04-07T11:02:19.626Z,21.97
2023-04-07T11:03:19.685Z,21.95
2023-04-07T11:04:19.646Z,21.95
2023-04-07T11:05:19.598Z,21.93
2023-04-07T11:06:19.615Z,21.92
2023-04-07T11:07:19.614Z,21.91
2023-04-07T11:08:19.625Z,21.89
2023-04-07T11:09:19.649Z,21.89
2023-04-07T11:10:19.674Z,21.89
2023-04-07T11:11:19.678Z,21.87
2023-04-07T11:12:19.704Z,21.86
2023-04-07T11:13:19.724Z,21.86
2023-04-07T11:14:19.749Z,21.85
2023-04-07T11:15:19.773Z,21.84
2023-04-07T11:16:19.799Z,21.83
2023-04-07T11:17:19.775Z,21.82
2023-04-07T11:18:19.805Z,21.82
2023-04-07T11:19:19.831Z,21.81
2023-04-07T11:20:19.851Z,21.80
2023-04-07T11:21:19.922Z,21.79
2023-04-07T11:23:19.828Z,21.78
2023-04-07T11:24:19.763Z,21.76
2023-04-07T11:25:19.745Z,21.75
2023-04-07T11:26:19.676Z,21.75
2023-04-07T11:27:19.624Z,21.74
2023-04-07T11:28:19.614Z,21.73
2023-04-07T11:29:19.543Z,21.72
2023-04-07T11:30:19.513Z,21.71
2023-04-07T11:31:19.504Z,21.71
2023-04-07T11:32:19.462Z,21.71
2023-04-07T11:33:19.370Z,21.70
2023-04-07T11:34:19.660Z,21.69
2023-04-07T11:35:19.303Z,21.69
2023-04-07T11:36:19.241Z,21.68
2023-04-07T11:37:19.236Z,21.67
2023-04-07T11:38:19.136Z,21.68
2023-04-07T11:39:19.103Z,21.68
2023-04-07T11:40:19.025Z,21.67
2023-04-07T11:41:18.989Z,21.67
2023-04-07T11:42:18.933Z,21.66
2023-04-07T11:43:18.883Z,21.66
2023-04-07T11:44:18.850Z,21.66
2023-04-07T11:45:18.801Z,21.66
2023-04-07T11:46:18.811Z,21.66
2023-04-07T11:47:18.700Z,21.66
2023-04-07T11:48:18.647Z,21.65
2023-04-07T11:49:18.602Z,21.65
2023-04-07T11:50:18.566Z,21.65
2023-04-07T11:51:18.597Z,21.65
2023-04-07T11:52:18.451Z,21.64
2023-04-07T11:53:18.407Z,21.64
2023-04-07T11:54:18.370Z,21.64
2023-04-07T11:55:19.652Z,21.64
2023-04-07T11:56:18.253Z,21.64
2023-04-07T11:57:19.154Z,21.63
2023-04-07T11:58:18.154Z,21.62
2023-04-07T11:59:18.098Z,21.62
2023-04-07T12:00:18.035Z,21.63
2023-04-07T12:01:17.985Z,21.64
2023-04-07T12:02:18.038Z,21.63
2023-04-07T12:03:18.111Z,21.64
2023-04-07T12:04:18.778Z,21.63
2023-04-07T12:05:18.116Z,21.64
2023-04-07T12:06:17.749Z,21.64
2023-04-07T12:07:17.727Z,21.65
2023-04-07T12:08:17.697Z,21.66
2023-04-07T12:09:17.602Z,21.66
2023-04-07T12:10:17.562Z,21.65
2023-04-07T12:11:17.513Z,21.64
2023-04-07T12:12:17.483Z,21.63
2023-04-07T12:13:17.431Z,21.62
2023-04-07T12:14:17.387Z,21.62
2023-04-07T12:15:17.344Z,21.61
2023-04-07T12:16:17.303Z,21.61
2023-04-07T12:17:17.256Z,21.60
2023-04-07T12:18:17.203Z,21.60
2023-04-07T12:19:17.149Z,21.59
2023-04-07T12:20:17.116Z,21.59
2023-04-07T12:21:17.073Z,21.59
2023-04-07T12:22:17.020Z,21.58
2023-04-07T12:23:16.968Z,21.57
2023-04-07T12:24:16.927Z,21.56
2023-04-07T12:25:16.872Z,21.56
2023-04-07T12:26:16.891Z,21.56
2023-04-07T12:27:16.775Z,21.55
2023-04-07T12:28:16.732Z,21.55
2023-04-07T12:29:16.687Z,21.55
2023-04-07T12:30:16.650Z,21.54
2023-04-07T12:31:16.596Z,21.54
2023-04-07T12:32:16.645Z,21.52
2023-04-07T12:33:16.576Z,21.53
2023-04-07T12:34:16.563Z,21.53
2023-04-07T12:35:16.578Z,21.53
2023-04-07T12:36:16.572Z,21.53
2023-04-07T12:37:16.591Z,21.52
2023-04-07T12:38:16.632Z,21.52
2023-04-07T12:39:16.598Z,21.51
2023-04-07T12:40:16.550Z,21.51
2023-04-07T12:41:16.561Z,21.50
2023-04-07T12:42:16.556Z,21.50
2023-04-07T12:43:16.582Z,21.50
2023-04-07T12:44:16.588Z,21.49
2023-04-07T12:45:16.579Z,21.49
2023-04-07T12:46:16.611Z,21.48
2023-04-07T12:47:16.619Z,21.48
2023-04-07T12:48:16.542Z,21.47
2023-04-07T12:49:16.556Z,21.47
2023-04-07T12:50:16.534Z,21.47
2023-04-07T12:51:16.735Z,21.46
2023-04-07T12:52:16.550Z,21.45
2023-04-07T12:53:16.551Z,21.45